Time;durP1;ratioP1;P1;durP2;ratioP2;P2;SDS_P1;SDS_P2;PMS_P1;PMS_P2;Temp;Humidity;BMP_temperature;BMP_pressure;BME280_temperature;BME280_humidity;BME280_pressure;Samples;Min_cycle;Max_cycle;Signal;HPM_P1;HPM_P2
2022/06/06 00:01:39;;;;;;;51.33;29.13;;;15.30;99.90;;;;;;4972656;28;20278;-81
2022/06/06 00:04:04;;;;;;;56.33;30.47;;;15.30;99.90;;;;;;4973580;28;20697;-81
2022/06/06 00:06:30;;;;;;;56.90;31.50;;;15.30;99.90;;;;;;4976210;28;20284;-80
2022/06/06 00:08:57;;;;;;;54.03;30.17;;;15.30;99.90;;;;;;4976474;28;20176;-79
2022/06/06 00:11:23;;;;;;;53.23;28.43;;;15.30;99.90;;;;;;4975814;28;20231;-81
2022/06/06 00:13:49;;;;;;;51.00;29.30;;;15.30;99.90;;;;;;4976341;28;20656;-81
2022/06/06 00:16:15;;;;;;;58.90;30.90;;;15.30;99.90;;;;;;4976264;28;20177;-81
2022/06/06 00:18:40;;;;;;;58.70;30.30;;;15.40;99.90;;;;;;4976132;28;20279;-79
2022/06/06 00:21:10;;;;;;;61.47;30.57;;;15.40;99.90;;;;;;4975696;28;20722;-79
2022/06/06 00:23:36;;;;;;;68.60;32.40;;;15.40;99.90;;;;;;4975978;28;20191;-81
2022/06/06 00:26:07;;;;;;;74.13;32.43;;;15.40;99.90;;;;;;4976132;28;20229;-81
2022/06/06 00:28:34;;;;;;;89.60;34.93;;;15.50;99.90;;;;;;4976492;28;20187;-79
2022/06/06 00:34:48;;;;;;;81.50;35.10;;;15.50;99.90;;;;;;4976511;28;20202;-81
2022/06/06 00:36:34;;;;;;;91.60;34.63;;;15.50;99.90;;;;;;4977273;28;20559;-80
2022/06/06 00:39:00;;;;;;;97.40;37.77;;;15.50;99.90;;;;;;4976395;28;20192;-80
2022/06/06 00:41:26;;;;;;;103.57;37.93;;;15.60;99.90;;;;;;4975870;28;20204;-80
2022/06/06 00:44:08;;;;;;;100.03;36.33;;;15.60;99.90;;;;;;4975796;28;20183;-81
2022/06/06 00:46:36;;;;;;;101.93;37.70;;;15.60;99.90;;;;;;4976228;28;20213;-80
2022/06/06 00:49:03;;;;;;;109.70;40.13;;;15.60;99.90;;;;;;4976694;28;20180;-81
2022/06/06 00:51:31;;;;;;;96.80;39.37;;;15.60;99.90;;;;;;4975571;28;20223;-80
2022/06/06 00:53:58;;;;;;;106.10;38.37;;;15.70;99.90;;;;;;4975980;28;20190;-80
2022/06/06 00:56:39;;;;;;;106.73;38.30;;;15.70;99.90;;;;;;4976208;28;20178;-80
2022/06/06 00:59:11;;;;;;;113.33;41.20;;;15.70;99.90;;;;;;4976454;28;20182;-80
2022/06/06 01:01:40;;;;;;;118.97;41.90;;;15.70;99.90;;;;;;4959869;28;20323;-80
2022/06/06 01:04:06;;;;;;;117.83;41.37;;;15.70;99.90;;;;;;4975720;28;20179;-79
2022/06/06 01:06:37;;;;;;;128.10;44.97;;;15.70;99.90;;;;;;4975484;28;20204;-80
2022/06/06 01:09:03;;;;;;;126.77;43.07;;;15.70;99.90;;;;;;4976254;28;20216;-80
2022/06/06 01:11:33;;;;;;;122.43;39.93;;;15.70;99.90;;;;;;4975523;28;20219;-81
2022/06/06 01:13:58;;;;;;;141.30;41.17;;;15.70;99.90;;;;;;4975562;28;20227;-81
2022/06/06 01:16:37;;;;;;;136.23;42.53;;;15.70;99.90;;;;;;4974268;28;20176;-80
2022/06/06 01:19:32;;;;;;;142.93;44.50;;;15.60;99.90;;;;;;4975984;28;20226;-80
2022/06/06 01:22:22;;;;;;;137.63;43.83;;;15.50;99.90;;;;;;4974276;28;20207;-80
2022/06/06 01:25:25;;;;;;;139.20;44.87;;;15.50;99.90;;;;;;4975614;28;20187;-80
2022/06/06 01:28:29;;;;;;;133.63;45.33;;;15.50;99.90;;;;;;4974962;28;20199;-81
2022/06/06 01:30:58;;;;;;;126.30;43.30;;;15.40;99.90;;;;;;4974317;28;20228;-81
2022/06/06 01:33:24;;;;;;;142.50;46.53;;;15.50;99.90;;;;;;4974331;28;20227;-80
2022/06/06 01:35:52;;;;;;;171.80;49.47;;;15.50;99.90;;;;;;4974280;28;20168;-81
2022/06/06 01:38:22;;;;;;;150.83;47.63;;;15.40;99.90;;;;;;4974722;28;20176;-79
2022/06/06 01:40:54;;;;;;;148.17;46.77;;;15.40;99.90;;;;;;4974302;28;20207;-81
2022/06/06 01:43:27;;;;;;;138.53;45.30;;;15.30;99.90;;;;;;4973990;28;20179;-80
2022/06/06 01:46:00;;;;;;;136.77;43.37;;;15.30;99.90;;;;;;4973984;28;20212;-80
2022/06/06 01:48:32;;;;;;;107.73;39.13;;;15.30;99.90;;;;;;4975683;28;20171;-79
2022/06/06 01:50:57;;;;;;;102.07;37.13;;;15.30;99.90;;;;;;4973794;28;20251;-80
2022/06/06 01:53:24;;;;;;;99.73;35.00;;;15.20;99.90;;;;;;4973871;28;20211;-80
2022/06/06 01:55:52;;;;;;;91.53;33.53;;;15.20;99.90;;;;;;4973844;28;20172;-80
2022/06/06 01:58:30;;;;;;;96.83;32.63;;;15.20;99.90;;;;;;4974158;28;20173;-81
2022/06/06 02:00:55;;;;;;;80.57;30.07;;;15.10;99.90;;;;;;4973631;28;20211;-81
2022/06/06 02:03:21;;;;;;;80.87;31.90;;;15.10;99.90;;;;;;4973244;28;20211;-79
2022/06/06 02:05:47;;;;;;;86.23;30.67;;;15.10;99.90;;;;;;4973317;28;20187;-80
2022/06/06 02:08:14;;;;;;;83.90;30.83;;;15.00;99.90;;;;;;4973802;28;20210;-80
2022/06/06 02:10:40;;;;;;;79.17;28.30;;;15.00;99.90;;;;;;4973604;28;20184;-80
2022/06/06 02:13:06;;;;;;;81.00;28.97;;;14.90;99.90;;;;;;4973316;28;20187;-80
2022/06/06 02:15:32;;;;;;;79.43;28.13;;;14.90;99.90;;;;;;4973584;28;20270;-80
2022/06/06 02:17:58;;;;;;;73.97;25.47;;;14.90;99.90;;;;;;4974003;28;20561;-81
2022/06/06 02:20:26;;;;;;;74.33;24.60;;;14.90;99.90;;;;;;4973568;28;20195;-79
2022/06/06 02:22:53;;;;;;;70.00;25.60;;;15.00;99.90;;;;;;4973339;28;20203;-79
2022/06/06 02:25:19;;;;;;;71.63;25.53;;;15.00;99.90;;;;;;4974422;28;20187;-81
2022/06/06 02:27:45;;;;;;;61.70;24.77;;;15.00;99.90;;;;;;4974674;28;20211;-80
2022/06/06 02:30:22;;;;;;;65.70;24.77;;;15.00;99.90;;;;;;4974161;28;20184;-80
2022/06/06 02:32:48;;;;;;;59.10;22.93;;;15.00;99.90;;;;;;4973942;28;20199;-80
2022/06/06 02:35:17;;;;;;;61.97;23.63;;;15.00;99.90;;;;;;4974110;28;20263;-80
2022/06/06 02:37:45;;;;;;;59.17;22.17;;;15.00;99.90;;;;;;4974345;28;20645;-81
2022/06/06 02:40:12;;;;;;;59.93;22.20;;;15.00;99.90;;;;;;4973889;28;20672;-80
2022/06/06 02:42:38;;;;;;;54.03;21.93;;;15.00;99.90;;;;;;4974089;28;20204;-80
2022/06/06 02:45:05;;;;;;;54.30;20.53;;;15.00;99.90;;;;;;4973965;28;20183;-81
2022/06/06 02:47:31;;;;;;;49.47;20.50;;;15.00;99.90;;;;;;4974089;28;20261;-81
2022/06/06 02:49:57;;;;;;;47.67;19.97;;;15.00;99.90;;;;;;4973976;28;20632;-80
2022/06/06 02:52:22;;;;;;;49.03;19.67;;;15.00;99.90;;;;;;4973825;28;20200;-81
2022/06/06 02:54:48;;;;;;;48.50;19.33;;;15.00;99.90;;;;;;4974190;28;20172;-80
2022/06/06 02:57:14;;;;;;;51.47;20.17;;;14.90;99.90;;;;;;4974078;28;20222;-81
2022/06/06 02:59:43;;;;;;;45.13;20.40;;;14.90;99.90;;;;;;4974048;28;20712;-81
2022/06/06 03:02:09;;;;;;;48.67;19.73;;;14.90;99.90;;;;;;4974254;28;20698;-80
2022/06/06 03:04:38;;;;;;;51.47;21.10;;;15.00;99.90;;;;;;4973655;28;20541;-79
2022/06/06 03:07:16;;;;;;;52.93;21.60;;;14.90;99.90;;;;;;4974783;28;20195;-81
2022/06/06 03:10:18;;;;;;;51.97;20.40;;;14.90;99.90;;;;;;4974349;28;20281;-81
2022/06/06 03:12:43;;;;;;;52.60;20.07;;;14.90;99.90;;;;;;4973139;28;20334;-81
2022/06/06 03:15:31;;;;;;;50.80;20.00;;;15.00;99.90;;;;;;4975178;28;20657;-81
2022/06/06 03:21:16;;;;;;;44.23;19.13;;;14.90;99.90;;;;;;4975065;28;20239;-81
2022/06/06 03:24:03;;;;;;;52.77;19.53;;;14.90;99.90;;;;;;4973299;28;20630;-80
2022/06/06 03:27:04;;;;;;;42.13;20.03;;;14.90;99.90;;;;;;4972301;28;20299;-80
2022/06/06 03:30:02;;;;;;;42.37;17.90;;;14.90;99.90;;;;;;4965773;28;20211;-80
2022/06/06 03:32:48;;;;;;;41.53;17.07;;;15.00;99.90;;;;;;4971756;28;20205;-81
2022/06/06 03:35:29;;;;;;;39.30;16.90;;;15.00;99.90;;;;;;4972131;28;20187;-80
2022/06/06 03:38:00;;;;;;;37.40;17.37;;;14.90;99.90;;;;;;4972362;28;20171;-80
2022/06/06 03:40:35;;;;;;;37.07;16.67;;;14.90;99.90;;;;;;4975391;28;20196;-80
2022/06/06 03:43:05;;;;;;;40.90;17.17;;;14.90;99.90;;;;;;4975867;28;20257;-80
2022/06/06 03:45:50;;;;;;;40.37;16.50;;;14.90;99.90;;;;;;4975949;28;20183;-79
2022/06/06 03:48:30;;;;;;;42.27;16.57;;;14.80;99.90;;;;;;4975973;28;20206;-80
2022/06/06 03:51:02;;;;;;;34.77;15.60;;;14.80;99.90;;;;;;4975870;28;20192;-80
2022/06/06 03:53:34;;;;;;;39.20;16.33;;;14.70;99.90;;;;;;4975714;28;20183;-80
2022/06/06 03:56:30;;;;;;;37.37;16.43;;;14.70;99.90;;;;;;4976847;28;20222;-81
2022/06/06 03:58:56;;;;;;;39.50;16.03;;;14.70;99.90;;;;;;4978342;28;20196;-81
2022/06/06 04:01:24;;;;;;;34.27;14.43;;;14.60;99.90;;;;;;4976349;28;20195;-80
2022/06/06 04:03:52;;;;;;;34.50;15.30;;;14.70;99.90;;;;;;4976887;28;20633;-80
2022/06/06 04:06:20;;;;;;;34.10;14.73;;;14.60;99.90;;;;;;4976575;28;20246;-81
2022/06/06 04:08:46;;;;;;;32.50;14.43;;;14.60;99.90;;;;;;4977504;28;20194;-81
2022/06/06 04:11:38;;;;;;;32.60;13.67;;;14.60;99.90;;;;;;4976546;28;20192;-81
2022/06/06 04:14:13;;;;;;;32.07;13.67;;;14.60;99.90;;;;;;4976729;28;20239;-81
2022/06/06 04:16:38;;;;;;;33.07;13.40;;;14.60;99.90;;;;;;4976557;28;20637;-80
2022/06/06 04:19:24;;;;;;;30.30;13.83;;;14.60;99.90;;;;;;4976841;28;20235;-81
2022/06/06 04:22:08;;;;;;;29.47;12.37;;;14.70;99.90;;;;;;4975369;28;20684;-81
2022/06/06 04:24:41;;;;;;;28.30;12.23;;;14.60;99.90;;;;;;4977530;28;20270;-80
2022/06/06 04:27:38;;;;;;;31.10;12.87;;;14.60;99.90;;;;;;4976843;28;20222;-80
2022/06/06 04:30:30;;;;;;;29.67;13.43;;;14.60;99.90;;;;;;4976878;28;20180;-80
2022/06/06 04:33:31;;;;;;;31.97;13.53;;;14.60;99.90;;;;;;4971714;28;20620;-81
2022/06/06 04:36:19;;;;;;;34.73;13.40;;;14.60;99.90;;;;;;4975412;28;20179;-81
2022/06/06 04:39:01;;;;;;;41.33;15.90;;;14.60;99.90;;;;;;4977234;28;20195;-80
2022/06/06 04:41:30;;;;;;;38.77;16.73;;;14.60;99.90;;;;;;4977647;28;20203;-80
2022/06/06 04:44:08;;;;;;;51.37;19.43;;;14.60;99.90;;;;;;4976922;28;20541;-81
2022/06/06 04:46:45;;;;;;;55.03;20.10;;;14.60;99.90;;;;;;4977242;28;20207;-80
2022/06/06 04:49:12;;;;;;;55.50;21.40;;;14.70;99.90;;;;;;4977649;28;20663;-80
2022/06/06 04:51:40;;;;;;;63.90;25.07;;;14.70;99.90;;;;;;4976217;28;20211;-81
2022/06/06 04:54:10;;;;;;;60.87;24.93;;;14.70;99.90;;;;;;4977074;28;20204;-79
2022/06/06 04:56:37;;;;;;;66.93;25.83;;;14.70;99.90;;;;;;4976474;28;20274;-80
2022/06/06 04:59:04;;;;;;;71.33;27.10;;;14.80;99.90;;;;;;4980350;28;20241;-80
2022/06/06 05:01:30;;;;;;;75.97;27.27;;;14.80;99.90;;;;;;4978343;28;20196;-80
2022/06/06 05:03:55;;;;;;;74.60;27.83;;;14.80;99.90;;;;;;4977250;28;20274;-81
2022/06/06 05:06:31;;;;;;;73.63;27.67;;;14.90;99.90;;;;;;4976075;28;20680;-80
2022/06/06 05:09:05;;;;;;;66.93;28.07;;;14.90;99.90;;;;;;4976424;28;20171;-80
2022/06/06 05:11:50;;;;;;;71.67;29.23;;;15.00;99.90;;;;;;4976025;28;20199;-81
2022/06/06 05:14:15;;;;;;;66.70;27.17;;;15.10;99.90;;;;;;4976578;28;20263;-81
2022/06/06 05:16:53;;;;;;;75.43;29.37;;;15.10;99.90;;;;;;4977757;28;20266;-81
2022/06/06 05:19:27;;;;;;;76.37;28.83;;;15.10;99.90;;;;;;4977847;28;20199;-80
2022/06/06 05:22:11;;;;;;;79.50;29.23;;;15.10;99.90;;;;;;4976797;28;20223;-82
2022/06/06 05:25:01;;;;;;;70.77;28.53;;;15.10;99.90;;;;;;4975447;28;20237;-81
2022/06/06 05:27:52;;;;;;;76.80;29.33;;;15.20;99.90;;;;;;4975104;28;20282;-81
2022/06/06 05:30:30;;;;;;;71.97;29.13;;;15.20;99.90;;;;;;4974771;28;20179;-81
2022/06/06 05:33:03;;;;;;;67.70;28.10;;;15.30;99.90;;;;;;4974566;28;20817;-81
2022/06/06 05:36:06;;;;;;;65.93;27.40;;;15.40;99.90;;;;;;4974986;28;20169;-81
2022/06/06 05:38:51;;;;;;;65.00;27.77;;;15.40;99.90;;;;;;4975285;28;20558;-81
2022/06/06 05:41:22;;;;;;;66.23;27.97;;;15.40;99.90;;;;;;4974389;28;20668;-80
2022/06/06 05:43:50;;;;;;;64.10;26.97;;;15.50;99.90;;;;;;4974533;28;20223;-80
2022/06/06 05:46:33;;;;;;;57.60;26.90;;;15.60;99.90;;;;;;4974447;28;20223;-80
2022/06/06 05:49:17;;;;;;;55.13;25.70;;;15.70;99.90;;;;;;4975641;28;20234;-79
2022/06/06 05:52:01;;;;;;;55.70;25.90;;;15.90;99.90;;;;;;4975314;28;20685;-81
2022/06/06 05:54:53;;;;;;;55.43;24.97;;;15.90;99.90;;;;;;4974354;28;20664;-81
2022/06/06 05:57:35;;;;;;;60.70;25.77;;;15.80;99.90;;;;;;4970413;28;20188;-81
2022/06/06 06:00:07;;;;;;;59.27;27.40;;;15.80;99.90;;;;;;4974297;28;20319;-81
2022/06/06 06:02:51;;;;;;;58.53;27.67;;;15.70;99.90;;;;;;4973713;28;20641;-81
2022/06/06 06:05:35;;;;;;;56.07;27.20;;;15.70;99.90;;;;;;4974495;28;20172;-80
2022/06/06 06:08:50;;;;;;;53.27;25.27;;;15.70;99.90;;;;;;4974514;28;20254;-80
2022/06/06 06:11:37;;;;;;;46.00;22.80;;;15.80;99.90;;;;;;4937061;29;20189;-81
2022/06/06 06:14:15;;;;;;;46.37;20.93;;;15.90;99.90;;;;;;4937384;29;20177;-81
2022/06/06 06:16:44;;;;;;;43.67;20.30;;;15.80;99.90;;;;;;4964576;28;20192;-81
2022/06/06 06:19:14;;;;;;;40.10;19.80;;;15.90;99.90;;;;;;4974288;28;20545;-79
2022/06/06 06:21:56;;;;;;;39.17;19.93;;;15.90;99.90;;;;;;4973118;28;20727;-78
2022/06/06 06:24:31;;;;;;;38.67;17.77;;;16.00;99.90;;;;;;4973983;28;20231;-79
2022/06/06 06:26:57;;;;;;;35.60;16.73;;;16.00;99.90;;;;;;4973527;28;20713;-78
2022/06/06 06:29:24;;;;;;;32.17;16.83;;;16.00;99.90;;;;;;4973728;28;20219;-78
2022/06/06 06:32:18;;;;;;;27.33;15.13;;;16.10;99.90;;;;;;4973392;28;20207;-78
2022/06/06 06:35:31;;;;;;;27.60;14.57;;;16.20;99.90;;;;;;4973721;28;20271;-78
2022/06/06 06:38:15;;;;;;;23.80;12.80;;;16.60;99.90;;;;;;4974035;28;20187;-78
2022/06/06 06:41:00;;;;;;;24.40;12.67;;;16.70;99.90;;;;;;4973059;28;20524;-78
2022/06/06 06:43:39;;;;;;;22.37;12.67;;;16.70;99.90;;;;;;4973548;28;20180;-78
2022/06/06 06:46:14;;;;;;;20.83;11.33;;;16.70;99.90;;;;;;4973395;28;20177;-79
2022/06/06 06:48:45;;;;;;;17.27;10.57;;;17.20;99.90;;;;;;4973910;28;20198;-78
2022/06/06 06:51:25;;;;;;;16.30;9.60;;;17.50;99.90;;;;;;4974678;28;20188;-78
2022/06/06 06:54:00;;;;;;;15.50;9.87;;;17.60;99.90;;;;;;4973570;28;20180;-78
2022/06/06 06:56:54;;;;;;;16.27;9.93;;;17.70;99.90;;;;;;4972852;28;20254;-78
2022/06/06 07:00:01;;;;;;;13.97;8.63;;;17.70;99.90;;;;;;4973320;28;20208;-77
2022/06/06 07:08:34;;;;;;;16.37;9.40;;;17.60;99.90;;;;;;4974322;28;20214;-79
2022/06/06 07:11:09;;;;;;;14.77;8.90;;;17.10;99.90;;;;;;4972397;28;20200;-78
2022/06/06 07:14:02;;;;;;;16.80;8.43;;;17.60;99.90;;;;;;4971675;28;20187;-78
2022/06/06 07:16:30;;;;;;;11.30;7.63;;;17.80;99.90;;;;;;4972763;28;20214;-78
2022/06/06 07:19:17;;;;;;;11.57;8.50;;;17.80;99.90;;;;;;4972814;28;20582;-78
2022/06/06 07:21:48;;;;;;;11.10;7.50;;;17.70;99.90;;;;;;4972189;28;20219;-78
2022/06/06 07:24:20;;;;;;;11.17;7.23;;;17.80;99.90;;;;;;4972476;28;20184;-78
2022/06/06 07:26:47;;;;;;;10.97;7.40;;;17.80;99.90;;;;;;4975090;28;20677;-79
2022/06/06 07:29:16;;;;;;;10.50;6.27;;;18.40;99.90;;;;;;4975155;28;20242;-78
2022/06/06 07:31:50;;;;;;;9.47;6.20;;;18.80;99.90;;;;;;4973783;28;20226;-78
2022/06/06 07:34:37;;;;;;;10.57;6.20;;;18.90;99.90;;;;;;4973549;28;20176;-79
2022/06/06 07:37:11;;;;;;;8.20;5.60;;;18.80;99.90;;;;;;4972554;28;20188;-78
2022/06/06 07:39:37;;;;;;;6.00;4.77;;;19.40;99.90;;;;;;4972199;28;20963;-79
2022/06/06 07:42:15;;;;;;;7.77;5.13;;;19.70;99.90;;;;;;4972367;28;20204;-78
2022/06/06 07:45:19;;;;;;;8.23;4.80;;;19.80;99.90;;;;;;4972266;28;20533;-79
2022/06/06 07:48:00;;;;;;;6.78;4.68;;;20.30;99.90;;;;;;4971994;28;20211;-79
2022/06/06 07:50:37;;;;;;;4.70;3.90;;;19.70;99.90;;;;;;4972004;28;20176;-80
2022/06/06 07:53:06;;;;;;;5.03;4.00;;;19.00;99.90;;;;;;4971875;28;20214;-78
2022/06/06 07:55:38;;;;;;;6.50;4.00;;;18.70;99.90;;;;;;4973916;28;20272;-78
2022/06/06 07:58:03;;;;;;;6.65;4.10;;;18.90;99.90;;;;;;4972319;28;20310;-78
2022/06/06 08:00:29;;;;;;;5.30;3.85;;;19.20;99.90;;;;;;4972611;28;20231;-78
2022/06/06 08:03:24;;;;;;;8.57;4.00;;;18.80;99.90;;;;;;4972086;28;20251;-78
2022/06/06 08:06:17;;;;;;;7.83;4.13;;;18.50;99.90;;;;;;4972242;28;20176;-77
2022/06/06 08:08:55;;;;;;;4.15;3.20;;;18.70;99.90;;;;;;4972162;28;20195;-78
2022/06/06 08:11:27;;;;;;;6.07;3.50;;;18.40;99.90;;;;;;4971693;28;20673;-78
2022/06/06 08:14:04;;;;;;;4.97;3.00;;;19.10;99.90;;;;;;4972109;28;20672;-78
2022/06/06 08:16:45;;;;;;;3.65;2.90;;;19.40;99.90;;;;;;4973226;28;20164;-78
2022/06/06 08:19:30;;;;;;;7.18;4.05;;;20.00;99.90;;;;;;4971999;28;20172;-78
2022/06/06 08:21:57;;;;;;;7.20;3.38;;;20.00;99.90;;;;;;4971316;28;20196;-78
2022/06/06 08:24:27;;;;;;;3.53;2.78;;;20.50;99.90;;;;;;4971997;28;20172;-78
2022/06/06 08:26:55;;;;;;;5.60;2.80;;;20.60;99.90;;;;;;4975427;28;20756;-78
2022/06/06 08:29:22;;;;;;;4.47;2.97;;;20.10;99.90;;;;;;4975454;28;20541;-78
2022/06/06 08:31:49;;;;;;;5.40;2.63;;;20.00;99.90;;;;;;4975534;28;20202;-78
2022/06/06 08:34:15;;;;;;;3.28;2.70;;;20.30;99.90;;;;;;4975786;28;20738;-78
2022/06/06 08:36:46;;;;;;;3.88;2.83;;;20.20;99.90;;;;;;4976514;28;20180;-78
2022/06/06 08:39:18;;;;;;;3.58;2.72;;;20.40;99.90;;;;;;4975821;28;20195;-78
2022/06/06 08:42:09;;;;;;;3.33;2.92;;;20.40;99.90;;;;;;4975807;28;20202;-78
2022/06/06 08:44:51;;;;;;;4.60;3.53;;;20.40;99.90;;;;;;4975701;28;20776;-78
2022/06/06 08:47:34;;;;;;;6.22;3.35;;;20.10;99.90;;;;;;4975761;28;20200;-78
2022/06/06 08:53:48;;;;;;;5.63;3.33;;;20.40;99.90;;;;;;4976718;28;20222;-78
2022/06/06 08:56:34;;;;;;;4.90;3.13;;;20.90;99.90;;;;;;4975338;28;20179;-78
2022/06/06 08:59:32;;;;;;;3.85;3.28;;;20.60;99.90;;;;;;4975471;28;20193;-78
2022/06/06 09:02:33;;;;;;;4.10;3.45;;;20.90;99.90;;;;;;4975211;28;20284;-78
2022/06/06 09:05:08;;;;;;;4.43;3.40;;;21.20;99.90;;;;;;4967070;28;20231;-78
2022/06/06 09:07:49;;;;;;;3.65;3.15;;;21.30;99.90;;;;;;4975051;28;20207;-77
2022/06/06 09:10:40;;;;;;;7.65;3.20;;;21.00;99.90;;;;;;4975277;28;20187;-78
2022/06/06 09:13:36;;;;;;;4.85;3.15;;;20.40;99.90;;;;;;4974890;28;20176;-79
2022/06/06 09:16:37;;;;;;;3.50;2.80;;;20.70;99.90;;;;;;4975171;28;20222;-78
2022/06/06 09:19:22;;;;;;;3.60;3.00;;;21.00;99.90;;;;;;4975088;28;20817;-78
2022/06/06 09:22:02;;;;;;;5.65;3.65;;;20.40;99.90;;;;;;4974722;28;20555;-78
2022/06/06 09:24:34;;;;;;;6.93;3.60;;;19.90;99.90;;;;;;4974892;28;20172;-79
2022/06/06 09:27:18;;;;;;;5.93;3.50;;;19.90;99.90;;;;;;4976288;28;20231;-78
2022/06/06 09:30:07;;;;;;;4.32;2.70;;;19.80;99.90;;;;;;4974658;28;20172;-77
2022/06/06 09:32:53;;;;;;;4.25;2.60;;;19.60;99.90;;;;;;4976028;28;20195;-78
2022/06/06 09:35:31;;;;;;;4.43;2.80;;;19.80;99.90;;;;;;4974707;28;20164;-78
2022/06/06 09:38:06;;;;;;;4.60;2.28;;;19.70;99.90;;;;;;4973495;28;20760;-78
2022/06/06 09:40:45;;;;;;;3.35;2.67;;;19.90;99.90;;;;;;4975407;28;20231;-78
2022/06/06 09:43:44;;;;;;;3.65;2.20;;;20.50;99.90;;;;;;4975898;28;20156;-78
2022/06/06 09:46:31;;;;;;;2.38;2.00;;;20.00;99.90;;;;;;4965617;28;20609;-78
2022/06/06 09:49:18;;;;;;;5.05;2.15;;;20.30;99.90;;;;;;4978035;28;20196;-79
2022/06/06 09:51:47;;;;;;;3.08;1.48;;;19.80;99.90;;;;;;4975105;28;20188;-79
2022/06/06 10:01:22;;;;;;;5.38;1.35;;;20.90;99.90;;;;;;4976326;28;20187;-80
2022/06/06 10:04:32;;;;;;;8.02;1.40;;;21.30;99.00;;;;;;4939739;29;20180;-80
2022/06/06 10:07:13;;;;;;;2.55;1.33;;;21.50;98.90;;;;;;4939340;29;20228;-80
2022/06/06 10:09:48;;;;;;;1.73;1.40;;;20.20;98.50;;;;;;4971455;28;20537;-80
2022/06/06 10:12:39;;;;;;;2.83;1.50;;;20.10;98.70;;;;;;4975405;28;20198;-79
2022/06/06 10:15:07;;;;;;;2.47;1.30;;;20.10;98.50;;;;;;4975103;28;20219;-80
2022/06/06 10:17:36;;;;;;;2.22;1.45;;;19.90;99.20;;;;;;4975290;28;20515;-80
2022/06/06 10:20:35;;;;;;;2.38;1.48;;;20.60;99.30;;;;;;4975659;28;20183;-80
2022/06/06 10:23:07;;;;;;;4.80;1.63;;;20.60;98.00;;;;;;4974895;28;20180;-80
2022/06/06 10:25:54;;;;;;;2.15;1.60;;;20.10;98.50;;;;;;4974495;28;20176;-79
2022/06/06 10:28:25;;;;;;;1.50;1.40;;;20.30;98.70;;;;;;4976221;28;20203;-79
2022/06/06 10:31:06;;;;;;;3.38;1.85;;;20.40;99.80;;;;;;4975599;28;20188;-79
2022/06/06 10:34:20;;;;;;;3.72;1.63;;;20.70;99.40;;;;;;4977127;28;20168;-80
2022/06/06 10:36:46;;;;;;;4.55;1.77;;;21.00;98.50;;;;;;4939587;29;20185;-80
2022/06/06 10:39:43;;;;;;;3.47;1.80;;;21.20;97.90;;;;;;4938754;29;20200;-79
2022/06/06 10:42:14;;;;;;;2.80;1.60;;;21.00;98.60;;;;;;4964532;28;20321;-80
2022/06/06 10:44:59;;;;;;;4.22;1.42;;;20.50;98.80;;;;;;4978507;28;20179;-79
2022/06/06 10:47:24;;;;;;;3.17;1.38;;;20.30;99.10;;;;;;4978530;28;20566;-79
2022/06/06 10:50:22;;;;;;;1.70;1.60;;;20.90;98.80;;;;;;4979247;28;20168;-79
2022/06/06 10:52:54;;;;;;;3.17;1.50;;;20.60;98.90;;;;;;4970891;28;20203;-79
2022/06/06 10:55:53;;;;;;;3.25;1.60;;;21.60;99.10;;;;;;4975778;28;20172;-79
2022/06/06 10:58:28;;;;;;;2.50;1.80;;;21.40;99.20;;;;;;4974382;28;20596;-79
2022/06/06 11:01:28;;;;;;;2.15;1.60;;;21.50;99.20;;;;;;4974628;28;20202;-80
2022/06/06 11:03:54;;;;;;;3.55;1.30;;;21.40;97.30;;;;;;4974650;28;20184;-80
2022/06/06 11:06:31;;;;;;;2.70;1.67;;;20.60;97.80;;;;;;4975186;28;20226;-80
2022/06/06 11:09:21;;;;;;;1.48;1.38;;;20.70;97.20;;;;;;4974241;28;20510;-78
2022/06/06 11:11:58;;;;;;;1.65;1.55;;;21.60;97.50;;;;;;4974063;28;20192;-80
2022/06/06 11:14:36;;;;;;;2.28;1.50;;;22.10;96.60;;;;;;4976790;28;20176;-79
2022/06/06 11:17:07;;;;;;;1.75;1.30;;;22.00;95.20;;;;;;4976923;28;20184;-80
2022/06/06 11:19:36;;;;;;;1.27;1.20;;;21.10;96.70;;;;;;4975058;28;20172;-80
2022/06/06 11:22:24;;;;;;;2.30;1.60;;;21.50;97.10;;;;;;4974851;28;20203;-80
2022/06/06 11:25:17;;;;;;;1.33;1.23;;;21.70;97.50;;;;;;4975269;28;20182;-80
2022/06/06 11:28:24;;;;;;;1.75;1.50;;;21.50;97.70;;;;;;4975397;28;20207;-79
2022/06/06 11:31:11;;;;;;;5.63;1.40;;;20.60;97.00;;;;;;4974804;28;20223;-79
2022/06/06 11:33:51;;;;;;;2.80;1.40;;;20.70;97.60;;;;;;4977878;28;20180;-80
2022/06/06 11:36:55;;;;;;;1.33;1.23;;;21.10;97.70;;;;;;4974273;28;20184;-78
2022/06/06 11:39:39;;;;;;;3.13;1.10;;;21.80;95.30;;;;;;4971729;28;20183;-78
2022/06/06 11:42:43;;;;;;;3.35;1.00;;;21.40;94.70;;;;;;4972532;28;20203;-78
2022/06/06 11:45:18;;;;;;;2.13;1.33;;;21.30;95.80;;;;;;4970351;28;20239;-79
2022/06/06 11:47:50;;;;;;;1.00;1.00;;;20.70;96.00;;;;;;4973551;28;20595;-79
2022/06/06 11:50:50;;;;;;;5.50;1.00;;;20.30;95.80;;;;;;4973442;28;20171;-79
2022/06/06 11:53:16;;;;;;;4.80;0.90;;;20.10;95.90;;;;;;4975877;28;20183;-80
2022/06/06 11:56:19;;;;;;;1.58;0.80;;;19.90;96.30;;;;;;4976852;28;20176;-80
2022/06/06 11:59:00;;;;;;;1.42;0.75;;;19.50;96.80;;;;;;4975602;28;20230;-79
2022/06/06 12:01:28;;;;;;;2.90;0.90;;;19.30;97.40;;;;;;4979002;28;20267;-79
2022/06/06 12:04:25;;;;;;;1.53;1.00;;;19.10;97.60;;;;;;4980745;28;20229;-79
2022/06/06 12:07:13;;;;;;;2.90;0.87;;;19.20;96.90;;;;;;4976936;28;20200;-79
2022/06/06 12:09:56;;;;;;;0.80;0.80;;;18.90;97.70;;;;;;4976259;28;20281;-79
2022/06/06 12:12:41;;;;;;;0.93;0.80;;;18.60;97.20;;;;;;4977553;28;20196;-79
2022/06/06 12:15:22;;;;;;;0.93;0.80;;;18.40;98.50;;;;;;4984293;28;20587;-80
2022/06/06 12:18:21;;;;;;;5.87;1.00;;;18.40;98.60;;;;;;4982280;28;20234;-79
2022/06/06 12:21:05;;;;;;;0.80;0.80;;;18.00;99.90;;;;;;4981546;28;20183;-80
2022/06/06 12:24:07;;;;;;;2.60;0.90;;;17.70;99.90;;;;;;4981066;28;20269;-79
2022/06/06 12:26:48;;;;;;;2.03;0.97;;;17.60;99.90;;;;;;4983406;28;20187;-79
2022/06/06 12:29:46;;;;;;;1.00;0.87;;;18.10;99.90;;;;;;4978448;28;20259;-78
2022/06/06 12:32:40;;;;;;;1.00;1.00;;;18.30;99.90;;;;;;4974339;28;20207;-78
2022/06/06 12:35:42;;;;;;;0.90;0.90;;;18.90;99.90;;;;;;4977573;28;20179;-78
2022/06/06 12:38:22;;;;;;;0.83;0.83;;;19.30;99.90;;;;;;4968718;28;20184;-80
2022/06/06 12:41:14;;;;;;;0.83;0.83;;;19.20;99.30;;;;;;4976508;28;20180;-78
2022/06/06 12:43:59;;;;;;;0.83;0.83;;;19.20;99.50;;;;;;4973733;28;20180;-78
2022/06/06 12:46:49;;;;;;;0.80;0.80;;;19.20;99.40;;;;;;4976340;28;20676;-78
2022/06/06 12:49:24;;;;;;;1.00;1.00;;;19.50;99.90;;;;;;4976557;28;20207;-79
2022/06/06 12:51:52;;;;;;;2.07;0.90;;;20.00;97.70;;;;;;4975661;28;20291;-78
2022/06/06 12:54:30;;;;;;;1.63;0.90;;;20.00;99.90;;;;;;4975029;28;20172;-79
2022/06/06 12:57:01;;;;;;;2.03;1.00;;;20.10;97.90;;;;;;4976858;28;20179;-79
2022/06/06 12:59:54;;;;;;;5.73;1.20;;;19.60;98.50;;;;;;4976709;28;20176;-78
2022/06/06 13:02:38;;;;;;;5.27;0.90;;;19.50;98.80;;;;;;4975973;28;20198;-79
2022/06/06 13:05:09;;;;;;;1.33;1.13;;;20.00;98.30;;;;;;4975651;28;20176;-78
2022/06/06 13:07:48;;;;;;;1.80;0.83;;;19.90;98.90;;;;;;4975628;28;20588;-79
2022/06/06 13:10:35;;;;;;;0.73;0.73;;;19.90;98.70;;;;;;4975518;28;20183;-78
2022/06/06 13:13:39;;;;;;;1.07;0.87;;;20.00;98.80;;;;;;4976227;28;20687;-79
2022/06/06 13:16:27;;;;;;;5.30;1.10;;;20.00;97.40;;;;;;4975935;28;20303;-78
2022/06/06 13:19:05;;;;;;;1.23;1.00;;;20.10;97.60;;;;;;4975156;28;20263;-79
2022/06/06 13:21:49;;;;;;;1.70;1.00;;;20.20;99.10;;;;;;4975408;28;20196;-79
2022/06/06 13:24:49;;;;;;;0.97;0.90;;;20.50;97.70;;;;;;4976029;28;20176;-79
2022/06/06 13:27:22;;;;;;;1.23;0.90;;;20.20;96.90;;;;;;4975968;28;20196;-79
2022/06/06 13:29:47;;;;;;;0.93;0.90;;;19.90;98.40;;;;;;4975039;28;20176;-78
2022/06/06 13:32:25;;;;;;;1.07;1.00;;;20.10;97.10;;;;;;4975351;28;20202;-78
2022/06/06 13:35:09;;;;;;;1.70;1.20;;;20.50;98.10;;;;;;4975259;28;20233;-78
2022/06/06 13:38:06;;;;;;;4.63;1.27;;;20.30;97.40;;;;;;4976123;28;20203;-78
2022/06/06 13:40:42;;;;;;;1.70;1.02;;;20.60;97.40;;;;;;4976163;28;20607;-78
2022/06/06 13:43:23;;;;;;;1.30;1.20;;;20.50;99.20;;;;;;4977442;28;20180;-78
2022/06/06 13:46:00;;;;;;;1.20;1.20;;;20.50;97.60;;;;;;4978594;28;20242;-78
2022/06/06 13:48:55;;;;;;;1.60;1.10;;;20.80;98.70;;;;;;4977335;28;20281;-78
2022/06/06 13:51:33;;;;;;;1.20;1.20;;;20.60;98.60;;;;;;4972159;28;20200;-79
2022/06/06 13:54:07;;;;;;;2.83;1.40;;;20.80;98.60;;;;;;4973892;28;20514;-78
2022/06/06 13:56:45;;;;;;;1.58;1.17;;;20.70;97.90;;;;;;4974033;28;20198;-79